Time;durP1;ratioP1;P1;durP2;ratioP2;P2;SDS_P1;SDS_P2;PMS_P1;PMS_P2;Temp;Humidity;BMP_temperature;BMP_pressure;BME280_temperature;BME280_humidity;BME280_pressure;Samples;Min_cycle;Max_cycle;Signal;HPM_P1;HPM_P2
2023/10/26 00:01:32;;;;;;;8.13;7.32;;;14.20;99.90;;;;;;5133235;28;20069;-72
2023/10/26 00:03:59;;;;;;;8.60;7.20;;;14.20;99.90;;;;;;5129620;28;20020;-71
2023/10/26 00:06:25;;;;;;;7.72;6.93;;;14.30;99.90;;;;;;5133547;28;20019;-71
2023/10/26 00:08:50;;;;;;;9.20;7.35;;;14.30;99.90;;;;;;5133797;28;20050;-71
2023/10/26 00:11:16;;;;;;;7.57;6.78;;;14.30;99.90;;;;;;5133014;28;20407;-71
2023/10/26 00:13:42;;;;;;;10.63;7.95;;;14.30;99.90;;;;;;5133793;28;20023;-71
2023/10/26 00:16:07;;;;;;;8.50;6.88;;;14.30;99.90;;;;;;5132795;28;20073;-72
2023/10/26 00:18:33;;;;;;;7.22;6.53;;;14.20;99.90;;;;;;5133263;28;20124;-72
2023/10/26 00:20:59;;;;;;;9.52;7.10;;;14.20;99.90;;;;;;5133027;28;20034;-71
2023/10/26 00:23:25;;;;;;;7.75;6.75;;;14.20;99.90;;;;;;5133461;28;20027;-71
2023/10/26 00:25:51;;;;;;;9.93;6.90;;;14.20;99.90;;;;;;5133444;28;20412;-72
2023/10/26 00:28:16;;;;;;;8.73;6.75;;;14.20;99.90;;;;;;5132494;28;20100;-72
2023/10/26 00:30:42;;;;;;;7.80;7.00;;;14.20;99.90;;;;;;5133385;28;20039;-70
2023/10/26 00:33:08;;;;;;;9.55;7.43;;;14.20;99.90;;;;;;5132759;28;20023;-71
2023/10/26 00:35:34;;;;;;;8.15;7.35;;;14.20;99.90;;;;;;5133115;28;20436;-71
2023/10/26 00:37:59;;;;;;;9.30;8.32;;;14.20;99.90;;;;;;5132884;28;20027;-71
2023/10/26 00:40:25;;;;;;;7.95;7.13;;;14.20;99.90;;;;;;5114689;28;20031;-71
2023/10/26 00:42:51;;;;;;;12.65;7.57;;;14.20;99.90;;;;;;5133223;28;20055;-71
2023/10/26 00:45:18;;;;;;;8.80;7.38;;;14.10;99.90;;;;;;5132357;28;20122;-71
2023/10/26 00:47:43;;;;;;;8.95;7.50;;;14.20;99.90;;;;;;5135925;27;20031;-71
2023/10/26 00:50:09;;;;;;;8.15;7.03;;;14.10;99.90;;;;;;5136395;27;20080;-70
2023/10/26 00:52:37;;;;;;;8.63;7.78;;;14.10;99.90;;;;;;5136466;27;20023;-71
2023/10/26 00:55:06;;;;;;;9.73;8.02;;;14.20;99.90;;;;;;5136330;27;20060;-71
2023/10/26 00:57:32;;;;;;;10.88;6.65;;;14.10;99.90;;;;;;5136431;27;20104;-71
2023/10/26 00:59:59;;;;;;;6.50;5.28;;;14.10;99.90;;;;;;5136537;27;20031;-72
2023/10/26 01:02:25;;;;;;;7.45;5.05;;;14.10;99.90;;;;;;5135895;27;20455;-71
2023/10/26 01:04:51;;;;;;;6.80;5.88;;;14.00;99.90;;;;;;5136421;27;20057;-72
2023/10/26 01:07:17;;;;;;;5.28;4.78;;;14.00;99.90;;;;;;5135946;27;20054;-71
2023/10/26 01:09:43;;;;;;;5.90;5.15;;;13.90;99.90;;;;;;5118024;27;20034;-71
2023/10/26 01:12:09;;;;;;;6.95;5.57;;;13.80;99.90;;;;;;5135830;27;20030;-71
2023/10/26 01:14:35;;;;;;;7.05;5.50;;;13.80;99.90;;;;;;5136347;27;20031;-71
2023/10/26 01:17:01;;;;;;;5.72;5.05;;;13.70;99.90;;;;;;5135914;27;20106;-71
2023/10/26 01:19:41;;;;;;;6.18;5.57;;;13.70;99.90;;;;;;5117848;27;20524;-72
2023/10/26 01:22:07;;;;;;;6.10;5.50;;;13.60;99.90;;;;;;5135801;27;20031;-72
2023/10/26 01:24:33;;;;;;;6.55;5.85;;;13.60;99.90;;;;;;5135837;27;20043;-72
2023/10/26 01:26:58;;;;;;;6.68;6.00;;;13.50;99.90;;;;;;5136114;27;20027;-71
2023/10/26 01:29:24;;;;;;;7.85;6.45;;;13.50;99.90;;;;;;5135388;27;20019;-73
2023/10/26 01:31:49;;;;;;;9.60;7.03;;;13.50;99.90;;;;;;5135451;27;20035;-70
2023/10/26 01:34:15;;;;;;;9.82;8.73;;;13.50;99.90;;;;;;5117056;27;20379;-70
2023/10/26 01:36:41;;;;;;;9.50;7.70;;;13.40;99.90;;;;;;5136241;27;20037;-71
2023/10/26 01:39:06;;;;;;;10.98;8.50;;;13.40;99.90;;;;;;5136051;27;20023;-71
2023/10/26 01:41:32;;;;;;;11.45;8.48;;;13.30;99.90;;;;;;5136234;27;20031;-71
2023/10/26 01:44:00;;;;;;;9.20;7.75;;;13.30;99.90;;;;;;5135435;27;20027;-71
2023/10/26 01:46:25;;;;;;;10.15;7.97;;;13.30;99.90;;;;;;5135342;27;20379;-71
2023/10/26 01:48:51;;;;;;;8.63;6.95;;;13.30;99.90;;;;;;5117114;27;20028;-71
2023/10/26 01:51:17;;;;;;;8.82;6.57;;;13.20;99.90;;;;;;5134855;27;20042;-71
2023/10/26 01:53:42;;;;;;;8.32;6.55;;;13.20;99.90;;;;;;5135625;27;20027;-71
2023/10/26 01:56:08;;;;;;;7.72;6.43;;;13.20;99.90;;;;;;5135069;27;20387;-71
2023/10/26 01:58:34;;;;;;;7.38;6.47;;;13.10;99.90;;;;;;5134874;27;20043;-71
2023/10/26 02:01:01;;;;;;;9.57;7.40;;;13.10;99.90;;;;;;5135466;27;20039;-71
2023/10/26 02:03:26;;;;;;;7.80;6.65;;;13.10;99.90;;;;;;5135119;27;20108;-70
2023/10/26 02:05:52;;;;;;;7.28;5.88;;;13.10;99.90;;;;;;5136492;27;20105;-71
2023/10/26 02:08:17;;;;;;;8.05;6.18;;;13.10;99.90;;;;;;5136031;27;20029;-71
2023/10/26 02:10:43;;;;;;;7.40;6.60;;;13.10;99.90;;;;;;5123197;27;20066;-72
2023/10/26 02:13:10;;;;;;;8.68;7.47;;;13.00;99.90;;;;;;5114737;28;20027;-72
2023/10/26 02:15:35;;;;;;;7.35;6.20;;;13.00;99.90;;;;;;5096266;28;20353;-71
2023/10/26 02:18:02;;;;;;;9.05;6.53;;;13.00;99.90;;;;;;5114279;28;20030;-72
2023/10/26 02:20:27;;;;;;;11.23;6.30;;;13.00;99.90;;;;;;5114076;28;20055;-72
2023/10/26 02:22:53;;;;;;;6.60;5.90;;;13.00;99.90;;;;;;5114322;28;20164;-72
2023/10/26 02:25:20;;;;;;;6.72;6.03;;;13.00;99.90;;;;;;5095765;28;20102;-72
2023/10/26 02:27:46;;;;;;;6.28;5.70;;;13.00;99.90;;;;;;5114132;28;20414;-72
2023/10/26 02:30:12;;;;;;;7.10;5.60;;;13.00;99.90;;;;;;5113843;28;20074;-72
2023/10/26 02:32:39;;;;;;;14.30;6.32;;;13.00;99.90;;;;;;5114234;28;20026;-72
2023/10/26 02:35:05;;;;;;;7.68;5.70;;;13.00;99.90;;;;;;5113894;28;20035;-72
2023/10/26 02:37:33;;;;;;;5.85;5.25;;;13.00;99.90;;;;;;5114031;28;20144;-71
2023/10/26 02:39:58;;;;;;;6.30;5.13;;;13.00;99.90;;;;;;5114067;28;20464;-71
2023/10/26 02:42:24;;;;;;;6.88;5.32;;;12.90;99.90;;;;;;5113557;28;20053;-70
2023/10/26 02:44:50;;;;;;;6.20;5.25;;;13.00;99.90;;;;;;5114011;28;20047;-70
2023/10/26 02:47:15;;;;;;;5.38;4.80;;;12.90;99.90;;;;;;5113299;28;20145;-70
2023/10/26 02:49:41;;;;;;;5.13;4.63;;;13.00;99.90;;;;;;5113907;28;20503;-71
2023/10/26 02:52:06;;;;;;;5.00;4.50;;;12.90;99.90;;;;;;5113725;28;20016;-76
2023/10/26 02:54:32;;;;;;;6.88;4.80;;;13.00;99.90;;;;;;5113747;28;20062;-71
2023/10/26 02:56:58;;;;;;;7.35;5.07;;;13.00;99.90;;;;;;5113525;28;20051;-71
2023/10/26 02:59:23;;;;;;;6.35;4.93;;;13.00;99.90;;;;;;5113277;28;20028;-71
2023/10/26 03:01:49;;;;;;;5.70;4.40;;;13.00;99.90;;;;;;5113722;28;20408;-71
2023/10/26 03:04:14;;;;;;;4.90;4.20;;;13.00;99.90;;;;;;5113224;28;20032;-71
2023/10/26 03:06:40;;;;;;;4.93;3.63;;;13.00;99.90;;;;;;5114114;28;20467;-70
2023/10/26 03:09:10;;;;;;;5.43;3.40;;;13.10;99.90;;;;;;5113563;28;20058;-71
2023/10/26 03:11:36;;;;;;;4.95;3.10;;;13.10;99.90;;;;;;5113607;28;20458;-71
2023/10/26 03:14:02;;;;;;;3.17;2.50;;;13.10;99.90;;;;;;5113403;28;20051;-71
2023/10/26 03:16:28;;;;;;;4.00;3.03;;;13.10;99.90;;;;;;5113140;28;20066;-71
2023/10/26 03:18:53;;;;;;;4.15;3.33;;;13.10;99.90;;;;;;5113155;28;20024;-72
2023/10/26 03:21:20;;;;;;;2.85;2.45;;;13.20;99.90;;;;;;5112851;28;20365;-72
2023/10/26 03:23:52;;;;;;;3.83;2.47;;;13.20;99.90;;;;;;5113442;28;20039;-72
2023/10/26 03:26:18;;;;;;;4.13;2.42;;;13.20;99.90;;;;;;5113009;28;20039;-72
2023/10/26 03:28:44;;;;;;;2.72;2.05;;;13.20;99.90;;;;;;5113155;28;20172;-70
2023/10/26 03:31:10;;;;;;;2.38;1.90;;;13.20;99.90;;;;;;5113422;28;20511;-77
2023/10/26 03:33:36;;;;;;;2.55;1.70;;;13.20;99.90;;;;;;5113716;28;20341;-71
2023/10/26 03:36:02;;;;;;;1.60;1.35;;;13.30;99.90;;;;;;5113703;28;20055;-71
2023/10/26 03:38:28;;;;;;;1.60;1.50;;;13.30;99.90;;;;;;5115264;28;20035;-71
2023/10/26 03:40:54;;;;;;;1.30;1.20;;;13.30;99.90;;;;;;5133681;28;20551;-70
2023/10/26 03:43:19;;;;;;;1.15;1.05;;;13.40;99.90;;;;;;5133272;28;20119;-72
2023/10/26 03:45:45;;;;;;;2.40;0.90;;;13.40;99.90;;;;;;5133675;28;20023;-71
2023/10/26 03:48:11;;;;;;;1.13;1.02;;;13.50;99.90;;;;;;5133451;28;20035;-77
2023/10/26 03:50:37;;;;;;;1.88;1.17;;;13.50;99.90;;;;;;5115481;28;20032;-72
2023/10/26 03:53:03;;;;;;;1.42;0.90;;;13.50;99.90;;;;;;5133621;28;20028;-72
2023/10/26 03:55:28;;;;;;;1.42;1.20;;;13.50;99.90;;;;;;5133203;28;20030;-71
2023/10/26 03:57:54;;;;;;;1.58;1.02;;;13.60;99.90;;;;;;5133657;28;20098;-72
2023/10/26 04:00:20;;;;;;;1.35;0.82;;;13.60;99.90;;;;;;5131000;28;20031;-72
2023/10/26 04:02:45;;;;;;;2.45;1.25;;;13.60;99.90;;;;;;5128962;28;20502;-71
2023/10/26 04:05:12;;;;;;;1.25;1.00;;;13.60;99.90;;;;;;5133575;28;20058;-71
2023/10/26 04:07:38;;;;;;;2.17;1.60;;;13.60;99.90;;;;;;5133817;28;20361;-72
2023/10/26 04:10:06;;;;;;;1.20;1.00;;;13.70;99.90;;;;;;5133440;28;20032;-71
2023/10/26 04:12:31;;;;;;;2.35;1.00;;;13.70;99.90;;;;;;5132934;28;20031;-71
2023/10/26 04:14:57;;;;;;;1.58;1.13;;;13.70;99.90;;;;;;5115366;28;20050;-71
2023/10/26 04:17:23;;;;;;;0.88;0.77;;;13.70;99.90;;;;;;5114794;28;20367;-71
2023/10/26 04:19:48;;;;;;;2.70;1.10;;;13.80;99.90;;;;;;5133806;28;20024;-71
2023/10/26 04:22:14;;;;;;;1.23;0.80;;;13.80;99.90;;;;;;5135550;27;20083;-72
2023/10/26 04:24:39;;;;;;;2.42;0.73;;;13.80;99.90;;;;;;5137652;27;20024;-72
2023/10/26 04:27:05;;;;;;;2.10;0.90;;;13.80;99.90;;;;;;5137254;27;20094;-72
2023/10/26 04:29:31;;;;;;;0.90;0.70;;;13.80;99.90;;;;;;5136819;27;20030;-72
2023/10/26 04:31:57;;;;;;;1.05;0.80;;;13.90;99.90;;;;;;5136915;27;20110;-72
2023/10/26 04:34:23;;;;;;;1.45;0.93;;;13.90;99.90;;;;;;5137069;27;20034;-72
2023/10/26 04:36:48;;;;;;;1.45;0.70;;;13.90;99.90;;;;;;5137156;27;20023;-72
2023/10/26 04:39:15;;;;;;;1.38;0.70;;;13.90;99.90;;;;;;5136815;27;20031;-71
2023/10/26 04:41:41;;;;;;;1.20;0.90;;;13.90;99.90;;;;;;5136893;27;20084;-70
2023/10/26 04:44:07;;;;;;;0.70;0.70;;;13.90;99.90;;;;;;5136945;27;20027;-72
2023/10/26 04:46:33;;;;;;;1.02;0.70;;;13.90;99.90;;;;;;5136483;27;20027;-71
2023/10/26 04:48:58;;;;;;;1.33;0.77;;;14.00;99.90;;;;;;5118307;27;20030;-71
2023/10/26 04:51:24;;;;;;;3.03;0.82;;;14.00;99.90;;;;;;5136767;27;20031;-70
2023/10/26 04:53:50;;;;;;;0.70;0.70;;;14.00;99.90;;;;;;5136817;27;20019;-72
2023/10/26 04:56:16;;;;;;;2.92;0.80;;;14.00;99.90;;;;;;5117848;27;20028;-72
2023/10/26 04:58:43;;;;;;;1.60;0.80;;;14.00;99.90;;;;;;5136803;27;20031;-71
2023/10/26 05:01:09;;;;;;;0.75;0.60;;;14.00;99.90;;;;;;5136664;27;20026;-72
2023/10/26 05:03:34;;;;;;;0.75;0.50;;;14.00;99.90;;;;;;5136098;27;20032;-72
2023/10/26 05:06:00;;;;;;;1.55;0.70;;;14.00;99.90;;;;;;5136585;27;20023;-71
2023/10/26 05:08:26;;;;;;;0.75;0.50;;;14.00;99.90;;;;;;5135800;27;20387;-70
2023/10/26 05:10:52;;;;;;;0.88;0.40;;;14.00;99.90;;;;;;5136397;27;20083;-71
2023/10/26 05:13:17;;;;;;;3.83;0.70;;;14.00;99.90;;;;;;5136051;27;20383;-74
2023/10/26 05:15:46;;;;;;;1.33;0.95;;;14.10;99.90;;;;;;5117944;27;20106;-72
2023/10/26 05:18:12;;;;;;;1.13;0.70;;;14.10;99.90;;;;;;5136317;27;20023;-72
2023/10/26 05:20:38;;;;;;;1.00;0.63;;;14.10;99.90;;;;;;5135413;27;20383;-73
2023/10/26 05:23:05;;;;;;;2.05;0.70;;;14.10;99.90;;;;;;5136213;27;20039;-71
2023/10/26 05:25:31;;;;;;;1.48;0.57;;;14.10;99.60;;;;;;5136100;27;20027;-72
2023/10/26 05:27:57;;;;;;;1.63;0.60;;;14.20;99.30;;;;;;5117716;27;20027;-70
2023/10/26 05:30:23;;;;;;;0.43;0.40;;;14.20;98.90;;;;;;5135286;27;20088;-71
2023/10/26 05:32:48;;;;;;;0.60;0.57;;;14.20;98.70;;;;;;5134817;27;20058;-71
2023/10/26 05:35:14;;;;;;;0.98;0.50;;;14.20;98.70;;;;;;5117552;27;20027;-72
2023/10/26 05:37:40;;;;;;;0.82;0.60;;;14.20;98.90;;;;;;5135199;27;20019;-71
2023/10/26 05:40:06;;;;;;;0.85;0.60;;;14.20;98.40;;;;;;5135432;27;20034;-71
2023/10/26 05:42:32;;;;;;;1.80;0.60;;;14.20;98.20;;;;;;5135048;27;20474;-71
2023/10/26 05:44:57;;;;;;;1.45;0.63;;;14.20;98.00;;;;;;5135503;27;20031;-72
2023/10/26 05:47:23;;;;;;;1.80;0.60;;;14.20;97.80;;;;;;5117658;27;20105;-72
2023/10/26 05:49:49;;;;;;;1.67;0.60;;;14.30;97.80;;;;;;5137646;27;20083;-71
2023/10/26 05:52:16;;;;;;;1.50;0.77;;;14.20;98.00;;;;;;5137975;27;20106;-71
2023/10/26 05:54:41;;;;;;;1.85;0.85;;;14.20;98.00;;;;;;5137034;27;20027;-72
2023/10/26 05:57:07;;;;;;;0.85;0.60;;;14.20;97.90;;;;;;5132051;27;20056;-71
2023/10/26 05:59:32;;;;;;;0.93;0.70;;;14.30;98.10;;;;;;5135349;27;20027;-72
2023/10/26 06:01:58;;;;;;;0.73;0.68;;;14.30;97.70;;;;;;5135158;27;20084;-72
2023/10/26 06:04:24;;;;;;;1.20;0.55;;;14.30;97.80;;;;;;5135010;27;20035;-72
2023/10/26 06:06:50;;;;;;;1.05;0.57;;;14.30;97.90;;;;;;5135264;27;20035;-72
2023/10/26 06:09:16;;;;;;;2.17;0.90;;;14.30;98.10;;;;;;5135339;27;20023;-72
2023/10/26 06:11:41;;;;;;;0.98;0.57;;;14.30;97.80;;;;;;5134476;27;20464;-72
2023/10/26 06:14:08;;;;;;;2.72;0.80;;;14.30;97.60;;;;;;5135431;27;20072;-71
2023/10/26 06:16:34;;;;;;;1.13;0.82;;;14.30;97.50;;;;;;5116463;27;20031;-71
2023/10/26 06:19:00;;;;;;;1.80;0.90;;;14.30;97.50;;;;;;5135238;27;20026;-70
2023/10/26 06:21:27;;;;;;;1.23;0.80;;;14.30;97.30;;;;;;5134796;27;20447;-71
2023/10/26 06:23:53;;;;;;;1.00;0.52;;;14.30;96.90;;;;;;5135191;27;20080;-71
2023/10/26 06:26:19;;;;;;;1.95;0.70;;;14.40;96.00;;;;;;5116804;27;20126;-71
2023/10/26 06:28:46;;;;;;;0.93;0.60;;;14.40;95.40;;;;;;5134511;27;20070;-71
2023/10/26 06:31:16;;;;;;;2.10;0.60;;;14.40;95.40;;;;;;5134875;27;20460;-72
2023/10/26 06:33:42;;;;;;;1.45;0.50;;;14.40;94.90;;;;;;5134587;27;20137;-72
2023/10/26 06:36:09;;;;;;;0.85;0.52;;;14.40;94.60;;;;;;5134991;27;20023;-70
2023/10/26 06:38:36;;;;;;;1.75;0.85;;;14.50;94.60;;;;;;5135071;27;20410;-71
2023/10/26 06:41:02;;;;;;;2.95;0.73;;;14.50;94.90;;;;;;5134509;27;20024;-72
2023/10/26 06:43:29;;;;;;;0.65;0.60;;;14.50;94.50;;;;;;5134393;27;20037;-72
2023/10/26 06:45:55;;;;;;;3.17;0.70;;;14.50;93.90;;;;;;5134274;27;20031;-72
2023/10/26 06:48:20;;;;;;;0.70;0.55;;;14.50;93.40;;;;;;5116359;27;20027;-71
2023/10/26 06:50:47;;;;;;;0.82;0.60;;;14.60;93.60;;;;;;5134578;27;20023;-71
2023/10/26 06:53:14;;;;;;;2.20;0.70;;;14.60;93.80;;;;;;5134535;27;20054;-72
2023/10/26 06:55:39;;;;;;;0.80;0.50;;;14.60;94.10;;;;;;5134028;27;20037;-72
2023/10/26 06:58:05;;;;;;;3.97;0.90;;;14.60;94.00;;;;;;5134068;27;20134;-72
2023/10/26 07:00:31;;;;;;;0.77;0.70;;;14.60;93.70;;;;;;5134173;27;20031;-73
2023/10/26 07:02:57;;;;;;;1.10;0.82;;;14.70;93.60;;;;;;5134272;27;20173;-73
2023/10/26 07:05:23;;;;;;;1.48;0.93;;;14.70;93.80;;;;;;5133942;27;20111;-71
2023/10/26 07:07:48;;;;;;;2.63;0.80;;;14.70;93.80;;;;;;5133727;27;20102;-72
2023/10/26 07:10:18;;;;;;;1.45;0.85;;;14.80;93.50;;;;;;5115272;27;20069;-71
2023/10/26 07:12:45;;;;;;;0.98;0.80;;;14.80;93.20;;;;;;5133484;27;20020;-70
2023/10/26 07:15:11;;;;;;;1.50;0.88;;;14.80;93.10;;;;;;5130248;27;20031;-69
2023/10/26 07:17:37;;;;;;;3.00;0.88;;;14.90;92.90;;;;;;5114928;27;20164;-68
2023/10/26 07:20:03;;;;;;;1.08;0.77;;;14.90;92.50;;;;;;5113416;28;20106;-68
2023/10/26 07:22:31;;;;;;;3.13;1.02;;;15.00;92.60;;;;;;5113011;28;20477;-69
2023/10/26 07:24:57;;;;;;;1.88;0.80;;;15.10;92.60;;;;;;5119791;27;20045;-69
2023/10/26 07:27:23;;;;;;;2.20;0.80;;;15.10;92.30;;;;;;5118292;27;20032;-68
2023/10/26 07:29:48;;;;;;;2.45;1.33;;;15.10;91.80;;;;;;5112745;28;20051;-68
2023/10/26 07:32:14;;;;;;;5.05;1.88;;;15.10;91.90;;;;;;5125911;27;20035;-69
2023/10/26 07:34:40;;;;;;;2.15;1.15;;;15.20;92.10;;;;;;5129027;27;20031;-68
2023/10/26 07:37:06;;;;;;;3.95;0.82;;;15.20;91.60;;;;;;5122706;28;20023;-68
2023/10/26 07:39:34;;;;;;;0.90;0.65;;;15.20;91.10;;;;;;5132918;27;20030;-68
2023/10/26 07:42:00;;;;;;;1.30;0.70;;;15.30;90.40;;;;;;5133540;28;20068;-68
2023/10/26 07:44:26;;;;;;;1.63;0.63;;;15.40;90.00;;;;;;5133583;28;20031;-68
2023/10/26 07:46:52;;;;;;;1.45;0.50;;;15.40;89.30;;;;;;5129692;28;20345;-68
2023/10/26 07:49:18;;;;;;;2.17;0.68;;;15.50;89.10;;;;;;5115156;28;20440;-68
2023/10/26 07:51:43;;;;;;;1.98;0.70;;;15.50;88.40;;;;;;5129928;28;20118;-68
2023/10/26 07:54:09;;;;;;;1.80;1.00;;;15.80;88.50;;;;;;5132324;28;20084;-68
2023/10/26 07:56:37;;;;;;;1.88;0.82;;;15.90;89.70;;;;;;5133360;27;20047;-70
2023/10/26 07:59:03;;;;;;;2.00;0.90;;;16.10;88.30;;;;;;5118554;27;20395;-69
2023/10/26 08:01:28;;;;;;;2.20;1.13;;;16.10;87.50;;;;;;5134378;27;20066;-68
2023/10/26 08:03:54;;;;;;;2.80;0.90;;;16.20;87.90;;;;;;5108827;27;20059;-70
2023/10/26 08:06:20;;;;;;;1.95;1.40;;;16.20;85.90;;;;;;5136084;27;20113;-71
2023/10/26 08:08:46;;;;;;;2.28;0.75;;;16.20;85.00;;;;;;5136188;27;20020;-74
2023/10/26 08:11:13;;;;;;;2.33;0.80;;;16.30;85.10;;;;;;5117924;27;20071;-75
2023/10/26 08:13:40;;;;;;;1.67;0.82;;;16.30;83.20;;;;;;5127795;27;20018;-75
2023/10/26 08:16:05;;;;;;;2.45;0.70;;;16.50;81.40;;;;;;5136444;27;20031;-76
2023/10/26 08:18:31;;;;;;;1.20;0.55;;;16.60;82.60;;;;;;5137221;27;20407;-76
2023/10/26 08:20:57;;;;;;;1.23;0.50;;;16.80;81.10;;;;;;5138293;27;20099;-74
2023/10/26 08:23:22;;;;;;;1.40;0.70;;;16.90;78.40;;;;;;5137523;27;20035;-75
2023/10/26 08:25:48;;;;;;;1.17;0.57;;;17.10;78.60;;;;;;5138614;27;20398;-74
2023/10/26 08:28:15;;;;;;;1.67;0.80;;;17.20;77.90;;;;;;5137071;27;20476;-69
2023/10/26 08:30:41;;;;;;;3.25;0.65;;;17.30;76.40;;;;;;5135990;27;20493;-68
2023/10/26 08:33:07;;;;;;;1.67;0.63;;;17.30;74.70;;;;;;5125468;27;20028;-70
2023/10/26 08:35:32;;;;;;;1.10;0.55;;;17.40;74.40;;;;;;5134165;27;20052;-69
2023/10/26 08:37:58;;;;;;;1.02;0.40;;;17.50;73.70;;;;;;5135999;27;20459;-67
2023/10/26 08:40:24;;;;;;;1.40;0.52;;;17.50;71.70;;;;;;5132673;27;20080;-68
2023/10/26 08:42:50;;;;;;;3.28;1.00;;;17.50;72.70;;;;;;5133719;27;20031;-68
2023/10/26 08:45:23;;;;;;;1.40;0.98;;;17.60;74.30;;;;;;5131346;27;20033;-68
2023/10/26 08:47:50;;;;;;;5.38;1.20;;;17.70;75.70;;;;;;5132813;27;20103;-67
2023/10/26 08:50:23;;;;;;;1.92;1.20;;;17.70;75.80;;;;;;5116931;27;20041;-69
2023/10/26 08:52:51;;;;;;;2.97;1.20;;;17.80;76.00;;;;;;5134161;27;20019;-69
2023/10/26 08:55:17;;;;;;;2.42;0.95;;;17.80;75.20;;;;;;5135137;27;20058;-68
2023/10/26 08:57:46;;;;;;;4.88;1.00;;;17.90;75.50;;;;;;5130163;27;20078;-69
2023/10/26 09:00:13;;;;;;;5.65;2.47;;;17.90;76.40;;;;;;5133035;27;20242;-70
2023/10/26 09:02:39;;;;;;;6.25;2.63;;;18.00;76.70;;;;;;5134397;27;20424;-69
2023/10/26 09:05:06;;;;;;;3.78;1.27;;;18.10;76.70;;;;;;5134987;27;20073;-70
2023/10/26 09:07:32;;;;;;;4.50;1.40;;;18.10;76.80;;;;;;5134536;27;20506;-68
2023/10/26 09:09:57;;;;;;;2.00;1.15;;;18.10;77.10;;;;;;5129475;27;20023;-70
2023/10/26 09:12:23;;;;;;;2.63;0.70;;;18.10;77.10;;;;;;5135603;27;20404;-69
2023/10/26 09:15:06;;;;;;;2.15;1.10;;;18.20;75.70;;;;;;5135808;27;20463;-68
2023/10/26 09:17:32;;;;;;;3.35;1.20;;;18.20;74.80;;;;;;5118199;27;20068;-68
2023/10/26 09:19:58;;;;;;;1.40;0.90;;;18.20;76.20;;;;;;5117695;27;20069;-66
2023/10/26 09:22:37;;;;;;;3.22;1.20;;;18.30;76.00;;;;;;5129387;27;20091;-66
2023/10/26 09:25:10;;;;;;;5.18;0.77;;;18.30;75.80;;;;;;5136210;27;20035;-67
2023/10/26 09:27:37;;;;;;;3.53;0.93;;;18.30;73.60;;;;;;5135791;27;20019;-66
2023/10/26 09:30:04;;;;;;;2.30;1.00;;;18.40;74.70;;;;;;5115605;27;20027;-67
2023/10/26 09:32:34;;;;;;;1.48;0.98;;;18.50;75.10;;;;;;5126121;27;20475;-67
2023/10/26 09:35:01;;;;;;;1.97;0.77;;;18.50;75.20;;;;;;5118750;27;20027;-68
2023/10/26 09:37:26;;;;;;;2.00;0.90;;;18.60;76.50;;;;;;5122182;27;20027;-69
2023/10/26 09:39:53;;;;;;;1.75;0.85;;;18.60;75.90;;;;;;5135527;27;20548;-70
2023/10/26 09:42:19;;;;;;;2.53;0.95;;;18.60;76.40;;;;;;5135733;27;20062;-70
2023/10/26 09:44:46;;;;;;;1.67;0.90;;;18.60;76.50;;;;;;5134332;27;20530;-70
2023/10/26 09:47:11;;;;;;;1.33;0.90;;;18.60;76.70;;;;;;5101908;28;20019;-69
2023/10/26 09:49:37;;;;;;;2.85;1.20;;;18.60;76.30;;;;;;5114763;28;20024;-69
2023/10/26 09:52:04;;;;;;;2.08;0.75;;;18.70;76.40;;;;;;5115022;28;20089;-68
2023/10/26 09:54:36;;;;;;;2.55;0.70;;;18.70;76.00;;;;;;5117431;27;20034;-66
2023/10/26 09:57:13;;;;;;;1.80;0.88;;;18.80;75.60;;;;;;5120442;27;20078;-68
2023/10/26 09:59:40;;;;;;;4.00;0.80;;;18.80;75.50;;;;;;5126782;27;20028;-69
2023/10/26 10:02:16;;;;;;;1.38;0.80;;;18.90;75.10;;;;;;5135309;27;20027;-67
2023/10/26 10:04:42;;;;;;;3.83;0.90;;;18.90;74.70;;;;;;5135391;27;20027;-68
2023/10/26 10:07:07;;;;;;;1.85;0.70;;;18.90;74.30;;;;;;5131428;27;20023;-68
2023/10/26 10:10:05;;;;;;;2.70;1.13;;;19.00;74.10;;;;;;5119591;27;20027;-68
2023/10/26 10:12:32;;;;;;;6.57;2.78;;;19.00;74.10;;;;;;5114727;28;20107;-70
2023/10/26 10:15:00;;;;;;;2.33;1.10;;;19.10;75.60;;;;;;5114219;28;20359;-69
2023/10/26 10:17:44;;;;;;;3.55;0.95;;;19.10;73.80;;;;;;5114688;28;20440;-69
2023/10/26 10:20:18;;;;;;;1.45;0.68;;;19.30;73.00;;;;;;5113707;28;20102;-68
2023/10/26 10:22:44;;;;;;;1.10;0.60;;;19.30;68.50;;;;;;5133513;27;20126;-67
2023/10/26 10:25:10;;;;;;;1.08;0.45;;;19.30;64.80;;;;;;5134835;27;20102;-67
2023/10/26 10:27:48;;;;;;;2.10;0.80;;;19.20;62.80;;;;;;5134988;27;20023;-70
2023/10/26 10:30:16;;;;;;;1.05;0.70;;;19.20;64.80;;;;;;5114307;28;20424;-72
2023/10/26 10:32:45;;;;;;;1.10;0.70;;;19.20;63.60;;;;;;5122915;27;20031;-72
2023/10/26 10:35:11;;;;;;;2.05;0.75;;;19.30;66.40;;;;;;5118995;27;20049;-67
2023/10/26 10:37:38;;;;;;;0.95;0.80;;;19.50;67.90;;;;;;5120072;27;20027;-66
2023/10/26 10:40:13;;;;;;;1.48;0.82;;;19.60;68.10;;;;;;5133210;27;20056;-67
2023/10/26 10:42:40;;;;;;;1.77;0.73;;;19.80;68.10;;;;;;5133937;27;20390;-70
2023/10/26 10:45:16;;;;;;;0.80;0.55;;;20.00;66.50;;;;;;5126194;27;20033;-67
2023/10/26 10:47:43;;;;;;;1.52;1.25;;;20.10;66.60;;;;;;5129054;27;20027;-67
2023/10/26 10:50:22;;;;;;;0.98;0.63;;;20.30;66.60;;;;;;5133823;27;20031;-69
2023/10/26 10:52:55;;;;;;;1.00;0.65;;;20.40;65.10;;;;;;5132746;27;20027;-67
2023/10/26 10:55:27;;;;;;;0.95;0.55;;;20.50;64.20;;;;;;5133387;27;20023;-68
2023/10/26 10:57:53;;;;;;;1.33;0.85;;;20.70;63.40;;;;;;5132488;27;20120;-68
2023/10/26 11:00:19;;;;;;;1.67;0.70;;;20.90;63.70;;;;;;5131666;27;20476;-68
2023/10/26 11:02:49;;;;;;;1.48;0.63;;;21.00;60.60;;;;;;5123868;27;20084;-68
2023/10/26 11:05:16;;;;;;;1.23;0.65;;;21.10;61.20;;;;;;5133734;27;20019;-69
2023/10/26 11:07:42;;;;;;;1.33;0.88;;;21.20;60.90;;;;;;5132871;27;20034;-72
2023/10/26 11:10:08;;;;;;;0.63;0.50;;;21.20;60.50;;;;;;5133416;27;20034;-68
2023/10/26 11:12:34;;;;;;;0.90;0.60;;;21.30;60.60;;;;;;5126558;27;20038;-69
2023/10/26 11:15:00;;;;;;;1.15;0.60;;;21.30;59.50;;;;;;5128410;27;20456;-70
2023/10/26 11:17:28;;;;;;;0.85;0.60;;;21.30;58.70;;;;;;5132934;27;20528;-69
2023/10/26 11:19:56;;;;;;;1.38;0.60;;;21.20;59.70;;;;;;5132720;27;20051;-69
2023/10/26 11:22:23;;;;;;;1.05;0.70;;;21.20;59.50;;;;;;5132671;27;20502;-68
2023/10/26 11:24:49;;;;;;;1.10;0.70;;;21.10;60.30;;;;;;5132704;27;20038;-67
2023/10/26 11:27:17;;;;;;;1.92;0.70;;;21.00;61.30;;;;;;5132593;27;20023;-67
2023/10/26 11:29:45;;;;;;;1.05;0.77;;;20.80;62.10;;;;;;5132590;27;20031;-67
2023/10/26 11:32:21;;;;;;;1.17;0.60;;;20.70;62.30;;;;;;5132046;27;20069;-69
2023/10/26 11:35:09;;;;;;;1.55;0.70;;;20.50;61.40;;;;;;5132756;27;20426;-66
2023/10/26 11:37:35;;;;;;;0.70;0.60;;;20.20;61.40;;;;;;5132898;27;20047;-69
2023/10/26 11:40:06;;;;;;;2.92;0.80;;;20.00;61.40;;;;;;5128889;27;20570;-69
2023/10/26 11:42:55;;;;;;;4.43;0.70;;;19.90;62.20;;;;;;5134328;28;20043;-70
2023/10/26 11:45:22;;;;;;;1.98;0.70;;;19.70;63.30;;;;;;5133270;28;20155;-67
2023/10/26 11:47:53;;;;;;;0.85;0.75;;;19.50;63.90;;;;;;5129766;28;20019;-68
2023/10/26 11:50:30;;;;;;;1.75;0.70;;;19.40;64.60;;;;;;5133102;28;20023;-68
2023/10/26 11:52:57;;;;;;;1.05;0.70;;;19.40;65.40;;;;;;5132983;28;20110;-68
2023/10/26 11:55:24;;;;;;;2.47;0.80;;;19.30;66.50;;;;;;5132855;28;20367;-67
2023/10/26 11:57:51;;;;;;;0.90;0.70;;;19.20;67.30;;;;;;5132830;28;20047;-66
2023/10/26 12:00:18;;;;;;;1.23;0.82;;;19.10;67.60;;;;;;5132917;28;20069;-68
2023/10/26 12:02:44;;;;;;;1.58;0.85;;;19.00;68.30;;;;;;5132820;28;20043;-67
2023/10/26 12:05:15;;;;;;;3.30;0.70;;;19.00;68.90;;;;;;5133073;28;20027;-67
2023/10/26 12:07:44;;;;;;;0.70;0.50;;;19.00;68.40;;;;;;5133144;28;20019;-65
2023/10/26 12:10:10;;;;;;;0.90;0.70;;;19.00;68.60;;;;;;5132949;28;20028;-68
2023/10/26 12:12:37;;;;;;;1.38;0.70;;;18.90;69.30;;;;;;5132652;28;20416;-66
2023/10/26 12:15:04;;;;;;;1.65;0.80;;;18.90;69.30;;;;;;5132195;28;20382;-67
2023/10/26 12:17:29;;;;;;;1.05;0.60;;;18.80;69.40;;;;;;5132680;28;20031;-67
2023/10/26 12:19:55;;;;;;;3.78;0.85;;;18.80;69.80;;;;;;5123295;28;20019;-67
2023/10/26 12:22:21;;;;;;;2.67;0.80;;;18.80;71.10;;;;;;5132354;28;20467;-71
2023/10/26 12:24:46;;;;;;;0.80;0.73;;;18.70;70.60;;;;;;5131953;28;20027;-74
2023/10/26 12:27:16;;;;;;;1.20;1.00;;;18.70;72.10;;;;;;5132586;28;20052;-73
2023/10/26 12:29:45;;;;;;;2.55;0.75;;;18.70;72.80;;;;;;5132494;28;20455;-72
2023/10/26 12:32:11;;;;;;;1.25;0.90;;;18.60;72.60;;;;;;5125143;28;20024;-72
2023/10/26 12:34:37;;;;;;;1.33;0.65;;;18.60;71.20;;;;;;5121836;28;20024;-72
2023/10/26 12:37:03;;;;;;;0.82;0.45;;;18.50;69.60;;;;;;5101420;28;20697;-71
2023/10/26 12:39:29;;;;;;;0.95;0.70;;;18.50;70.40;;;;;;5111967;28;20020;-72
2023/10/26 12:41:54;;;;;;;0.95;0.63;;;18.50;70.70;;;;;;5112038;28;20051;-68
2023/10/26 12:44:21;;;;;;;4.55;2.50;;;18.50;70.90;;;;;;5115845;28;20042;-65